Airfield :
LOGIN :

Register | Disclaimer

   EN    FR    IT 

 










Legend :    VFR   Marginal VFR   IFR   Intensive IFR   Very Intensive IFR
Visi :
Ceiling :
>= 8 km
>= 3000ft
5 to 8 km
1000 to 3000 ft
1500m to 5 km
500 to 1000 ft
800 to 1500m
200 to 500 ft
< 800m
< 200 ft
Symbols :   Thunderstorms  Fog  Heavy snow  Heavy precipitations  Wind > 20 kt
SIGMETs :     Misc.  Thunderstorms  Icing  Turbulence  Mountain Waves  Volcanic Ashes







- Airport Elevation : 423 ft
- IATA code : PIS
- Download approach charts


LFBI - Poitiers

CURRENT METAR :
  • 191330Z AUTO 21006KT 9999 OVC015 10/09 Q1024 NOSIG

EXPIRED METARs :
  • 191300Z AUTO 22005KT 9999 OVC014 10/09 Q1024 BECMG OVC040
  • 191230Z AUTO 23005KT 9999 BKN015 OVC043 10/09 Q1024 NOSIG
  • 191200Z AUTO 24006KT 9999 FEW013 OVC047 09/09 Q1024 NOSIG
  • 191130Z AUTO 23006KT 9999 OVC047 09/08 Q1025 NOSIG
  • 191100Z AUTO 22005KT 9000 BKN017 BKN028 OVC050 08/08 Q1025 BECMG BKN005

TAF AMD TAF LFBI
Valid from the 19 at 12:00 until the 20 at 12:00 UTC


191252Z 1912/2012 24005KT 9999 OVC015
BECMG 1918/1920 3000 BR
TEMPO 1920/2008 0300 FG VV///
No reported NOTAMs for that airfield.



MET'MAP, your aeronautical weather chart ! - Copyright ORBIFLY December 2007 - Disclaimer

ORBIFLY MET'MAP TEAM :

Programming & Development : Alexandra Zaïnal
Concept & Development : Baudouin d'Aumeries
Co-Development & Prog : Marc-Olivier Méhu
Technical & hardware support : Manuel Goepfert

Contact : metmap@orbifly.com




SOURCES & CREDITS :

   NOAA